Time;durP1;ratioP1;P1;durP2;ratioP2;P2;SDS_P1;SDS_P2;PMS_P1;PMS_P2;Temp;Humidity;BMP_temperature;BMP_pressure;BME280_temperature;BME280_humidity;BME280_pressure;Samples;Min_cycle;Max_cycle;Signal;HPM_P1;HPM_P2
2021/06/19 00:02:31;;;;;;;2.45;1.90;;;;;21.70;100823.00;;;;10475780;28;20209;-77
2021/06/19 00:07:34;;;;;;;3.78;2.33;;;;;21.70;100806.00;;;;10476269;28;20196;-77
2021/06/19 00:12:37;;;;;;;1.95;1.80;;;;;21.50;100820.00;;;;10517656;28;20199;-77
2021/06/19 00:17:39;;;;;;;1.83;1.70;;;;;21.30;100812.00;;;;10509274;28;20225;-77
2021/06/19 00:22:42;;;;;;;1.90;1.80;;;;;21.10;100816.00;;;;10509357;28;20679;-77
2021/06/19 00:27:45;;;;;;;1.88;1.60;;;;;21.00;100817.00;;;;10467646;28;20209;-77
2021/06/19 00:32:48;;;;;;;3.15;1.73;;;;;20.90;100828.00;;;;10498709;28;20688;-77
2021/06/19 00:37:51;;;;;;;2.63;1.80;;;;;20.80;100837.00;;;;10492058;28;20205;-77
2021/06/19 00:42:57;;;;;;;2.75;1.95;;;;;20.80;100844.00;;;;10507653;28;20219;-78
2021/06/19 00:48:00;;;;;;;3.15;2.25;;;;;20.80;100843.00;;;;10483791;28;20251;-77
2021/06/19 00:53:03;;;;;;;2.67;1.80;;;;;20.80;100834.00;;;;10449530;28;20201;-77
2021/06/19 00:58:05;;;;;;;3.67;2.10;;;;;20.80;100844.00;;;;10465524;28;20201;-77
2021/06/19 01:03:07;;;;;;;3.22;2.00;;;;;20.80;100849.00;;;;10502951;28;20221;-77
2021/06/19 01:08:09;;;;;;;2.03;1.85;;;;;20.60;100844.00;;;;10490338;28;20193;-77
2021/06/19 01:13:11;;;;;;;2.45;1.67;;;;;20.50;100849.00;;;;10490633;28;20181;-77
2021/06/19 01:18:13;;;;;;;3.47;1.80;;;;;20.30;100860.00;;;;10508521;28;20568;-77
2021/06/19 01:23:15;;;;;;;2.72;1.83;;;;;20.20;100857.00;;;;10506828;28;20217;-77
2021/06/19 01:28:17;;;;;;;3.28;1.80;;;;;20.10;100862.00;;;;10478186;28;20202;-77
2021/06/19 01:33:20;;;;;;;5.00;2.03;;;;;20.00;100861.00;;;;10506552;28;20224;-76
2021/06/19 01:38:22;;;;;;;1.83;1.70;;;;;20.00;100864.00;;;;10489465;28;20200;-77
2021/06/19 01:43:24;;;;;;;2.00;1.80;;;;;19.90;100868.00;;;;10488812;28;20209;-76
2021/06/19 01:48:26;;;;;;;3.28;2.10;;;;;19.80;100864.00;;;;10495826;28;20599;-77
2021/06/19 01:53:28;;;;;;;2.88;2.42;;;;;19.70;100854.00;;;;10447903;28;20194;-76
2021/06/19 01:58:30;;;;;;;2.88;2.40;;;;;19.60;100870.00;;;;10487107;28;20230;-77
2021/06/19 02:03:32;;;;;;;3.00;2.70;;;;;19.60;100869.00;;;;10491111;28;20688;-77
2021/06/19 02:08:37;;;;;;;2.75;2.55;;;;;19.50;100863.00;;;;10514072;28;20279;-77
2021/06/19 02:13:39;;;;;;;4.53;3.35;;;;;19.50;100864.00;;;;10496587;28;20246;-77
2021/06/19 02:18:41;;;;;;;3.80;3.42;;;;;19.40;100864.00;;;;10487789;28;20645;-77
2021/06/19 02:23:43;;;;;;;4.43;2.80;;;;;19.30;100861.00;;;;10505762;28;20676;-77
2021/06/19 02:28:45;;;;;;;3.63;2.95;;;;;19.20;100867.00;;;;10470873;28;20251;-77
2021/06/19 02:33:47;;;;;;;5.15;3.10;;;;;19.10;100865.00;;;;10506746;28;20215;-77
2021/06/19 02:38:50;;;;;;;3.38;3.08;;;;;19.00;100866.00;;;;10512137;28;20201;-77
2021/06/19 02:43:52;;;;;;;4.78;3.53;;;;;19.00;100870.00;;;;10494943;28;20215;-77
2021/06/19 02:48:54;;;;;;;4.50;4.20;;;;;18.90;100868.00;;;;10491469;28;20193;-77
2021/06/19 02:53:55;;;;;;;6.38;4.88;;;;;18.90;100856.00;;;;10528020;28;20184;-77
2021/06/19 02:58:57;;;;;;;4.25;3.95;;;;;18.90;100874.00;;;;10495629;28;20196;-77
2021/06/19 03:03:59;;;;;;;7.40;4.47;;;;;18.90;100870.00;;;;10546813;28;20278;-77
2021/06/19 03:09:04;;;;;;;4.70;4.30;;;;;18.90;100868.00;;;;10529173;28;20184;-77
2021/06/19 03:14:05;;;;;;;5.45;4.57;;;;;18.90;100874.00;;;;10493701;28;20587;-77
2021/06/19 03:19:09;;;;;;;4.88;4.38;;;;;19.00;100880.00;;;;10522992;28;20189;-77
2021/06/19 03:24:11;;;;;;;5.25;4.47;;;;;19.00;100899.00;;;;10511089;28;20216;-77
2021/06/19 03:29:13;;;;;;;4.47;4.07;;;;;19.00;100902.00;;;;10527381;28;20185;-77
2021/06/19 03:34:15;;;;;;;5.00;4.50;;;;;18.90;100903.00;;;;10509052;28;20220;-77
2021/06/19 03:39:17;;;;;;;4.78;4.00;;;;;18.80;100905.00;;;;10510143;28;20205;-77
2021/06/19 03:44:20;;;;;;;7.60;5.22;;;;;18.60;100895.00;;;;10527699;28;20213;-77
2021/06/19 03:49:23;;;;;;;6.60;5.90;;;;;18.60;100910.00;;;;10526708;28;20195;-77
2021/06/19 03:54:25;;;;;;;6.22;5.38;;;;;18.60;100915.00;;;;10483062;28;20624;-77
2021/06/19 03:59:26;;;;;;;6.10;5.60;;;;;18.70;100920.00;;;;10493016;28;20189;-78
2021/06/19 04:04:28;;;;;;;8.63;6.80;;;;;18.80;100922.00;;;;10510524;28;20217;-77
2021/06/19 04:09:30;;;;;;;9.52;8.63;;;;;18.80;100939.00;;;;10509195;28;20189;-77
2021/06/19 04:14:32;;;;;;;9.90;8.40;;;;;18.90;100936.00;;;;10510005;28;20652;-77
2021/06/19 04:19:38;;;;;;;10.38;8.85;;;;;18.90;100944.00;;;;10496542;28;20914;-76
2021/06/19 04:24:41;;;;;;;9.75;8.63;;;;;19.00;100946.00;;;;10502112;28;20212;-76
2021/06/19 04:29:44;;;;;;;9.65;8.65;;;;;19.20;100967.00;;;;10565046;28;20237;-76
2021/06/19 04:34:46;;;;;;;11.30;9.73;;;;;19.30;100964.00;;;;10520976;28;20211;-76
2021/06/19 04:39:53;;;;;;;12.95;10.63;;;;;19.30;100968.00;;;;10489553;28;20291;-76
2021/06/19 04:45:04;;;;;;;9.25;8.35;;;;;19.30;100991.00;;;;10540253;28;20221;-76
2021/06/19 04:50:09;;;;;;;9.45;8.50;;;;;19.60;100993.00;;;;10464435;28;20227;-76
2021/06/19 04:55:16;;;;;;;8.82;7.95;;;;;19.60;101004.00;;;;10464605;28;20189;-76
2021/06/19 05:00:20;;;;;;;7.55;6.85;;;;;19.70;101009.00;;;;10499851;28;20243;-75
2021/06/19 05:05:24;;;;;;;7.25;6.63;;;;;19.70;101010.00;;;;10540650;28;20217;-77
2021/06/19 05:10:26;;;;;;;7.05;6.45;;;;;19.80;101016.00;;;;10521914;28;20189;-76
2021/06/19 05:15:28;;;;;;;6.50;5.80;;;;;19.80;101019.00;;;;10504955;28;20241;-76
2021/06/19 05:20:31;;;;;;;7.38;6.00;;;;;19.70;101018.00;;;;10540209;28;20193;-76
2021/06/19 05:25:34;;;;;;;6.63;5.40;;;;;19.60;101024.00;;;;10505535;28;20270;-76
2021/06/19 05:30:36;;;;;;;9.57;7.07;;;;;19.60;101023.00;;;;10505308;28;20201;-76
2021/06/19 05:35:38;;;;;;;5.90;5.30;;;;;19.70;101024.00;;;;10520883;28;20217;-76
2021/06/19 05:40:40;;;;;;;6.00;5.22;;;;;19.80;101026.00;;;;10529403;28;20219;-76
2021/06/19 05:45:44;;;;;;;7.63;6.57;;;;;19.90;101022.00;;;;10493114;28;20217;-76
2021/06/19 05:50:46;;;;;;;7.10;6.38;;;;;20.10;101026.00;;;;10487857;28;20289;-77
2021/06/19 05:55:48;;;;;;;6.28;5.68;;;;;20.20;101035.00;;;;10504671;28;20204;-76
2021/06/19 06:00:50;;;;;;;5.82;5.25;;;;;20.50;101025.00;;;;10488659;28;20189;-76
2021/06/19 06:05:52;;;;;;;5.57;5.05;;;;;20.60;101012.00;;;;10454297;28;20685;-76
2021/06/19 06:10:54;;;;;;;5.97;5.10;;;;;20.50;101018.00;;;;10487571;28;20194;-76
2021/06/19 06:15:56;;;;;;;6.07;5.13;;;;;20.40;101032.00;;;;10460683;28;20201;-76
2021/06/19 06:20:58;;;;;;;4.93;4.50;;;;;20.50;101043.00;;;;10507729;28;20660;-77
2021/06/19 06:26:01;;;;;;;6.38;4.55;;;;;20.50;101035.00;;;;10507273;28;20259;-76
2021/06/19 06:31:03;;;;;;;6.43;3.95;;;;;20.80;101023.00;;;;10453574;28;20645;-77
2021/06/19 06:36:05;;;;;;;4.82;4.30;;;;;21.30;101032.00;;;;10453030;28;20228;-76
2021/06/19 06:41:07;;;;;;;4.30;3.30;;;;;21.40;101042.00;;;;10470029;28;20194;-77
2021/06/19 06:46:09;;;;;;;4.53;3.33;;;;;21.50;101045.00;;;;10488168;28;20202;-77
2021/06/19 06:51:11;;;;;;;4.72;3.80;;;;;21.80;101050.00;;;;10470884;28;20668;-77
2021/06/19 06:56:13;;;;;;;3.80;3.50;;;;;22.10;101034.00;;;;10494232;28;20177;-76
2021/06/19 07:01:16;;;;;;;4.35;3.67;;;;;22.40;101024.00;;;;10529070;28;20199;-77
2021/06/19 07:06:18;;;;;;;4.28;3.72;;;;;22.70;101024.00;;;;10511902;28;20201;-76
2021/06/19 07:11:20;;;;;;;6.05;3.13;;;;;23.10;101026.00;;;;10512337;28;20200;-77
2021/06/19 07:16:22;;;;;;;3.88;3.40;;;;;23.30;101011.00;;;;10516456;28;20193;-77
2021/06/19 07:21:25;;;;;;;4.13;3.50;;;;;23.80;101007.00;;;;10492000;28;20189;-76
2021/06/19 07:26:27;;;;;;;5.40;3.53;;;;;24.50;101012.00;;;;10495798;28;20675;-76
2021/06/19 07:31:29;;;;;;;3.50;3.20;;;;;24.40;101017.00;;;;10478041;28;20196;-77
2021/06/19 07:36:31;;;;;;;4.93;3.22;;;;;24.40;101014.00;;;;10472640;28;20247;-76
2021/06/19 07:41:39;;;;;;;3.35;2.88;;;;;24.20;101004.00;;;;10498936;28;20189;-76
2021/06/19 07:46:42;;;;;;;3.38;3.08;;;;;24.20;101019.00;;;;10490665;28;20209;-76
2021/06/19 07:51:44;;;;;;;4.28;3.85;;;;;23.90;101026.00;;;;10508379;28;20193;-76
2021/06/19 07:56:48;;;;;;;4.63;3.60;;;;;24.00;101027.00;;;;10485126;28;20296;-76
2021/06/19 08:01:50;;;;;;;4.57;3.45;;;;;24.20;101023.00;;;;10504684;28;20192;-76
2021/06/19 08:06:52;;;;;;;3.60;3.22;;;;;24.20;101022.00;;;;10490509;28;20225;-76
2021/06/19 08:11:54;;;;;;;4.63;4.03;;;;;23.90;101020.00;;;;10536923;28;20189;-76
2021/06/19 08:16:58;;;;;;;4.15;3.75;;;;;23.50;101027.00;;;;10496203;28;20200;-76
2021/06/19 08:22:02;;;;;;;4.38;3.47;;;;;23.90;101009.00;;;;10487479;28;20185;-76
2021/06/19 08:27:05;;;;;;;4.65;3.85;;;;;24.30;101006.00;;;;10520233;28;20197;-76
2021/06/19 08:32:08;;;;;;;4.97;3.47;;;;;24.30;101009.00;;;;10484924;28;20715;-76
2021/06/19 08:37:11;;;;;;;4.32;3.58;;;;;23.70;101011.00;;;;10467708;28;20201;-76
2021/06/19 08:42:14;;;;;;;4.68;4.20;;;;;23.30;101014.00;;;;10524117;28;20189;-77
2021/06/19 08:47:16;;;;;;;5.85;4.65;;;;;23.30;101012.00;;;;10486853;28;20363;-76
2021/06/19 08:52:18;;;;;;;5.10;4.70;;;;;23.70;100989.00;;;;10487108;28;20267;-76
2021/06/19 08:57:20;;;;;;;7.15;5.50;;;;;24.10;100987.00;;;;10522058;28;20193;-76
2021/06/19 09:02:22;;;;;;;6.60;5.90;;;;;24.50;100993.00;;;;10500453;28;20786;-76
2021/06/19 09:07:37;;;;;;;6.15;4.70;;;;;24.70;100989.00;;;;10487872;28;20254;-76
2021/06/19 09:12:39;;;;;;;5.90;3.28;;;;;25.60;100986.00;;;;10485821;28;20193;-76
2021/06/19 09:17:41;;;;;;;3.60;2.30;;;;;25.20;100986.00;;;;10492795;28;20230;-76
2021/06/19 09:22:43;;;;;;;5.20;4.55;;;;;24.70;101003.00;;;;10474787;28;20250;-76
2021/06/19 09:27:50;;;;;;;11.02;6.72;;;;;23.90;100990.00;;;;10494583;28;20696;-76
2021/06/19 09:32:56;;;;;;;8.25;6.90;;;;;23.70;100990.00;;;;10520930;28;20226;-77
2021/06/19 09:38:01;;;;;;;9.27;8.18;;;;;22.90;101004.00;;;;10476388;28;20207;-76
2021/06/19 09:43:25;;;;;;;10.43;9.40;;;;;22.50;101021.00;;;;10481647;28;20197;-76
2021/06/19 09:48:30;;;;;;;12.63;11.18;;;;;22.50;101016.00;;;;10503697;28;20181;-76
2021/06/19 09:53:32;;;;;;;12.73;11.35;;;;;22.60;101009.00;;;;10501988;28;20196;-77
2021/06/19 09:58:43;;;;;;;15.88;13.02;;;;;22.60;101010.00;;;;10494117;28;20652;-76
2021/06/19 10:04:04;;;;;;;13.52;12.13;;;;;22.30;101006.00;;;;10494770;28;20193;-76
2021/06/19 10:09:06;;;;;;;13.70;12.18;;;;;22.50;101015.00;;;;10506189;28;20543;-76
2021/06/19 10:14:11;;;;;;;15.55;11.98;;;;;22.80;101015.00;;;;10482423;28;20632;-76
2021/06/19 10:19:14;;;;;;;15.57;12.80;;;;;23.30;100996.00;;;;10495858;28;20266;-76
2021/06/19 10:24:16;;;;;;;13.43;12.13;;;;;23.90;100971.00;;;;10484972;28;20589;-76
2021/06/19 10:29:27;;;;;;;15.85;11.73;;;;;23.80;100985.00;;;;10492926;28;20189;-76
2021/06/19 10:34:32;;;;;;;14.95;13.45;;;;;23.10;101000.00;;;;10503297;28;20205;-76
2021/06/19 10:39:40;;;;;;;15.65;13.27;;;;;23.90;100979.00;;;;10525645;28;20192;-76
2021/06/19 10:44:51;;;;;;;12.40;11.18;;;;;24.10;100982.00;;;;10509482;28;20705;-76
2021/06/19 10:49:53;;;;;;;13.65;11.95;;;;;23.40;100970.00;;;;10507976;28;20208;-76
2021/06/19 10:55:11;;;;;;;14.07;12.57;;;;;23.40;100971.00;;;;10484985;28;20193;-75
2021/06/19 11:00:25;;;;;;;15.15;12.95;;;;;23.60;100968.00;;;;10467915;28;20208;-76
2021/06/19 11:05:43;;;;;;;12.60;11.50;;;;;24.20;100974.00;;;;10500409;28;20205;-76
2021/06/19 11:10:46;;;;;;;12.63;10.68;;;;;24.50;100981.00;;;;10483903;28;20197;-76
2021/06/19 11:15:49;;;;;;;12.63;10.50;;;;;24.00;100984.00;;;;10508427;28;20577;-76
2021/06/19 11:21:11;;;;;;;11.30;10.25;;;;;24.10;100992.00;;;;10520709;28;20194;-76
2021/06/19 11:26:53;;;;;;;12.07;10.88;;;;;24.00;100976.00;;;;10482061;28;20740;-76
2021/06/19 11:31:55;;;;;;;11.95;10.65;;;;;24.60;100977.00;;;;10454305;28;20231;-76
2021/06/19 11:36:58;;;;;;;12.18;10.88;;;;;26.10;100960.00;;;;10542644;28;21064;-76
2021/06/19 11:42:02;;;;;;;11.90;10.77;;;;;27.70;100961.00;;;;10497518;28;20787;-76
2021/06/19 11:47:07;;;;;;;12.90;10.80;;;;;28.00;100961.00;;;;10523023;28;20204;-76
2021/06/19 11:52:18;;;;;;;10.93;9.98;;;;;27.30;100972.00;;;;10492574;28;20189;-76
2021/06/19 11:57:25;;;;;;;10.43;9.35;;;;;25.70;100978.00;;;;10491179;28;20243;-76
2021/06/19 12:02:27;;;;;;;11.38;10.38;;;;;24.80;100994.00;;;;10501774;28;20386;-75
2021/06/19 12:07:29;;;;;;;10.90;9.82;;;;;24.00;100966.00;;;;10475238;28;20202;-76
2021/06/19 12:12:31;;;;;;;12.05;10.32;;;;;24.50;100980.00;;;;10487856;28;20234;-76
2021/06/19 12:17:40;;;;;;;13.05;11.63;;;;;24.40;100989.00;;;;10541482;28;20268;-76
2021/06/19 12:22:42;;;;;;;12.85;11.48;;;;;23.80;100992.00;;;;10523836;28;20188;-76
2021/06/19 12:27:44;;;;;;;12.88;10.98;;;;;23.90;100984.00;;;;10522961;28;20216;-77
2021/06/19 12:32:48;;;;;;;12.50;9.98;;;;;23.70;100969.00;;;;10517253;28;20222;-76
2021/06/19 12:37:54;;;;;;;10.80;9.32;;;;;23.50;100944.00;;;;10465863;28;20608;-76
2021/06/19 12:43:03;;;;;;;11.55;10.45;;;;;23.40;100940.00;;;;10501233;28;20189;-76
2021/06/19 12:48:19;;;;;;;12.60;10.40;;;;;23.50;100934.00;;;;10516586;28;20213;-77
2021/06/19 12:53:26;;;;;;;11.30;10.25;;;;;23.80;100932.00;;;;10514534;28;20249;-76
2021/06/19 12:58:34;;;;;;;10.98;9.82;;;;;24.80;100925.00;;;;10521335;28;20199;-76
2021/06/19 13:03:36;;;;;;;11.05;9.82;;;;;25.90;100900.00;;;;10504886;28;20193;-77
2021/06/19 13:08:38;;;;;;;10.88;9.77;;;;;26.30;100908.00;;;;10481699;28;20255;-77
2021/06/19 13:13:45;;;;;;;10.02;9.05;;;;;26.10;100901.00;;;;10463187;28;20197;-76
2021/06/19 13:19:11;;;;;;;11.20;10.23;;;;;26.20;100896.00;;;;10480362;28;20231;-76
2021/06/19 13:24:26;;;;;;;10.30;9.38;;;;;26.10;100896.00;;;;10465186;28;20250;-76
2021/06/19 13:29:28;;;;;;;13.05;9.70;;;;;25.60;100888.00;;;;10497140;28;20544;-76
2021/06/19 13:34:30;;;;;;;10.60;9.60;;;;;25.60;100888.00;;;;10488712;28;20212;-76
2021/06/19 13:39:35;;;;;;;10.88;9.57;;;;;25.60;100882.00;;;;10505761;28;20212;-77
2021/06/19 13:44:51;;;;;;;11.38;10.18;;;;;25.30;100877.00;;;;10540010;28;20196;-77
2021/06/19 13:49:55;;;;;;;11.57;9.95;;;;;24.70;100880.00;;;;10487822;28;20204;-76
2021/06/19 13:54:57;;;;;;;9.93;9.02;;;;;24.70;100872.00;;;;10499686;28;20236;-76
2021/06/19 13:59:59;;;;;;;11.82;9.52;;;;;24.30;100870.00;;;;10506654;28;20228;-76
2021/06/19 14:05:02;;;;;;;12.10;10.85;;;;;24.10;100872.00;;;;10512127;28;20207;-76
2021/06/19 14:10:05;;;;;;;10.13;8.77;;;;;24.50;100864.00;;;;10528796;28;20189;-76
2021/06/19 14:15:09;;;;;;;9.88;8.93;;;;;25.20;100849.00;;;;10528325;28;20819;-76
2021/06/19 14:20:12;;;;;;;10.43;9.23;;;;;25.90;100850.00;;;;10529280;28;20250;-76
2021/06/19 14:25:14;;;;;;;9.30;8.30;;;;;26.10;100848.00;;;;10528229;28;20259;-76
2021/06/19 14:30:19;;;;;;;9.48;8.57;;;;;25.90;100833.00;;;;10506844;28;20298;-76
2021/06/19 14:35:22;;;;;;;8.30;7.60;;;;;25.60;100827.00;;;;10506955;28;20314;-76
2021/06/19 14:40:24;;;;;;;8.02;7.20;;;;;25.90;100819.00;;;;10560341;28;20204;-77
2021/06/19 14:45:25;;;;;;;7.43;6.72;;;;;26.60;100811.00;;;;10494640;28;20212;-76
2021/06/19 14:50:27;;;;;;;8.70;7.57;;;;;26.80;100806.00;;;;10534295;28;20196;-75
2021/06/19 14:55:29;;;;;;;9.43;7.63;;;;;26.20;100800.00;;;;10511245;28;20960;-76
2021/06/19 15:00:32;;;;;;;8.20;7.40;;;;;26.50;100801.00;;;;10515462;28;20196;-76
2021/06/19 15:05:38;;;;;;;9.20;8.30;;;;;26.90;100800.00;;;;10529694;28;20266;-76
2021/06/19 15:10:40;;;;;;;9.63;8.60;;;;;27.00;100797.00;;;;10507575;28;20197;-76
2021/06/19 15:15:42;;;;;;;9.52;8.15;;;;;27.60;100785.00;;;;10507191;28;20189;-76
2021/06/19 15:20:44;;;;;;;10.13;9.18;;;;;27.30;100773.00;;;;10495795;28;20193;-76
2021/06/19 15:25:46;;;;;;;9.13;8.32;;;;;26.90;100770.00;;;;10500285;28;20217;-77
2021/06/19 15:30:48;;;;;;;11.02;8.68;;;;;26.60;100782.00;;;;10495220;28;20211;-75
2021/06/19 15:35:50;;;;;;;9.15;7.13;;;;;28.80;100744.00;;;;10531201;28;20220;-76
2021/06/19 15:40:52;;;;;;;8.80;8.00;;;;;32.50;100742.00;;;;10495163;28;20206;-76
2021/06/19 15:45:54;;;;;;;8.05;7.35;;;;;28.90;100732.00;;;;10506123;28;20305;-76
2021/06/19 15:51:05;;;;;;;9.02;7.90;;;;;27.00;100735.00;;;;10474109;28;20205;-76
2021/06/19 15:56:07;;;;;;;7.63;6.75;;;;;26.80;100730.00;;;;10517099;28;20188;-76
2021/06/19 16:01:09;;;;;;;8.65;7.85;;;;;27.10;100730.00;;;;10504969;28;20204;-76
2021/06/19 16:06:12;;;;;;;9.25;8.35;;;;;26.20;100724.00;;;;10533636;28;20303;-76
2021/06/19 16:11:14;;;;;;;8.82;7.97;;;;;26.10;100715.00;;;;10502777;28;20220;-76
2021/06/19 16:16:16;;;;;;;8.07;7.25;;;;;25.70;100707.00;;;;10471374;28;20663;-76
2021/06/19 16:21:19;;;;;;;9.30;8.50;;;;;25.60;100687.00;;;;10480020;28;20251;-75
2021/06/19 16:26:21;;;;;;;8.70;7.22;;;;;25.60;100695.00;;;;10492058;28;20699;-76
2021/06/19 16:31:23;;;;;;;9.35;8.40;;;;;25.20;100670.00;;;;10496819;28;20200;-76
2021/06/19 16:36:25;;;;;;;11.82;10.73;;;;;24.90;100661.00;;;;10491689;28;20220;-76
2021/06/19 16:41:28;;;;;;;11.77;10.57;;;;;24.70;100658.00;;;;10485362;28;20201;-76
2021/06/19 16:46:30;;;;;;;12.65;11.43;;;;;24.70;100641.00;;;;10486723;28;20234;-76
2021/06/19 16:51:32;;;;;;;12.15;10.98;;;;;24.90;100628.00;;;;10505628;28;20185;-76
2021/06/19 16:56:34;;;;;;;14.43;12.95;;;;;25.00;100627.00;;;;10444949;28;20607;-76
2021/06/19 17:01:35;;;;;;;17.15;15.48;;;;;24.90;100635.00;;;;10520317;28;20258;-76
2021/06/19 17:06:38;;;;;;;16.58;14.98;;;;;24.60;100616.00;;;;10480417;28;20212;-76
2021/06/19 17:11:39;;;;;;;15.77;14.27;;;;;24.50;100607.00;;;;10537146;28;20721;-76
2021/06/19 17:16:41;;;;;;;19.38;17.48;;;;;24.50;100596.00;;;;10519584;28;20182;-76
2021/06/19 17:21:44;;;;;;;18.58;16.80;;;;;24.40;100583.00;;;;10497731;28;20204;-76
2021/06/19 17:26:45;;;;;;;18.73;16.95;;;;;24.40;100596.00;;;;10540236;28;20205;-76
2021/06/19 17:31:49;;;;;;;20.50;18.45;;;;;24.30;100592.00;;;;10519322;28;20224;-76
2021/06/19 17:36:51;;;;;;;22.05;19.80;;;;;24.10;100601.00;;;;10501892;28;20579;-76
2021/06/19 17:41:53;;;;;;;22.55;20.20;;;;;24.00;100580.00;;;;10488217;28;20247;-76
2021/06/19 17:46:54;;;;;;;22.83;20.45;;;;;23.70;100591.00;;;;10502075;28;20255;-76
2021/06/19 17:51:56;;;;;;;24.67;20.67;;;;;23.50;100591.00;;;;10501985;28;20193;-76
2021/06/19 17:56:58;;;;;;;24.08;21.65;;;;;23.30;100578.00;;;;10492280;28;20193;-76
2021/06/19 18:02:01;;;;;;;25.92;23.15;;;;;23.10;100593.00;;;;10501461;28;20200;-76
2021/06/19 18:07:03;;;;;;;24.67;22.08;;;;;22.80;100600.00;;;;10498162;28;20212;-76
2021/06/19 18:12:06;;;;;;;27.58;24.77;;;;;22.70;100588.00;;;;10484683;28;20199;-76
2021/06/19 18:17:08;;;;;;;29.95;26.42;;;;;22.40;100567.00;;;;10477832;28;20189;-76
2021/06/19 18:22:10;;;;;;;33.08;27.58;;;;;22.20;100554.00;;;;10461914;28;20205;-76
2021/06/19 18:27:12;;;;;;;36.65;30.88;;;;;21.90;100543.00;;;;10521277;28;20231;-76
2021/06/19 18:32:14;;;;;;;35.17;30.70;;;;;21.60;100556.00;;;;10500772;28;20225;-76
2021/06/19 18:37:18;;;;;;;38.15;33.15;;;;;21.50;100564.00;;;;10485952;28;20231;-76
2021/06/19 18:42:20;;;;;;;38.70;32.35;;;;;21.30;100547.00;;;;10467296;28;20197;-76
2021/06/19 18:47:22;;;;;;;43.72;32.85;;;;;21.10;100516.00;;;;10467411;28;20591;-76
2021/06/19 18:52:25;;;;;;;37.30;31.83;;;;;21.00;100494.00;;;;10469453;28;20270;-76
2021/06/19 18:57:29;;;;;;;40.92;33.70;;;;;20.90;100476.00;;;;10525519;28;20525;-76
2021/06/19 19:02:31;;;;;;;38.63;32.05;;;;;20.80;100465.00;;;;10523831;28;20663;-76
2021/06/19 19:07:33;;;;;;;38.63;31.20;;;;;20.70;100458.00;;;;10510342;28;20609;-76
2021/06/19 19:12:35;;;;;;;38.78;30.23;;;;;20.50;100474.00;;;;10517450;28;20235;-76
2021/06/19 19:17:37;;;;;;;41.50;32.70;;;;;20.40;100462.00;;;;10466162;28;20205;-75
2021/06/19 19:22:40;;;;;;;43.60;33.53;;;;;20.30;100483.00;;;;10517876;28;20209;-76
2021/06/19 19:27:41;;;;;;;42.92;32.38;;;;;20.30;100486.00;;;;10497208;28;20672;-77
2021/06/19 19:32:43;;;;;;;44.90;31.98;;;;;20.30;100467.00;;;;10464899;28;20217;-77
2021/06/19 19:37:46;;;;;;;37.38;29.50;;;;;20.30;100463.00;;;;10497945;28;20661;-77
2021/06/19 19:42:48;;;;;;;40.90;30.38;;;;;20.30;100453.00;;;;10469341;28;20210;-77
2021/06/19 19:47:50;;;;;;;40.60;30.52;;;;;20.20;100450.00;;;;10503236;28;20224;-77
2021/06/19 19:52:52;;;;;;;35.92;28.48;;;;;20.20;100421.00;;;;10483210;28;20644;-77
2021/06/19 19:57:54;;;;;;;38.95;30.30;;;;;20.10;100364.00;;;;10481515;28;20197;-77
2021/06/19 20:02:57;;;;;;;40.33;29.10;;;;;20.10;100363.00;;;;10499281;28;20213;-77
2021/06/19 20:07:59;;;;;;;38.78;30.52;;;;;20.00;100350.00;;;;10522875;28;20204;-77
2021/06/19 20:13:04;;;;;;;38.72;29.15;;;;;19.80;100331.00;;;;10497846;28;20193;-76
2021/06/19 20:18:06;;;;;;;34.58;27.73;;;;;19.70;100313.00;;;;10514920;28;20177;-76
2021/06/19 20:23:09;;;;;;;44.38;29.10;;;;;19.60;100362.00;;;;10489607;28;20259;-76
2021/06/19 20:28:11;;;;;;;39.40;28.40;;;;;19.50;100355.00;;;;10541438;28;20623;-76
2021/06/19 20:33:14;;;;;;;38.75;29.15;;;;;19.40;100342.00;;;;10520861;28;20287;-77
2021/06/19 20:38:16;;;;;;;39.38;29.00;;;;;19.20;100321.00;;;;10493210;28;20254;-77
2021/06/19 20:43:18;;;;;;;44.67;30.52;;;;;19.10;100295.00;;;;10478604;28;20271;-77
2021/06/19 20:48:20;;;;;;;48.67;32.60;;;;;19.00;100319.00;;;;10520251;28;20723;-76
2021/06/19 20:53:22;;;;;;;51.95;33.08;;;;;18.90;100326.00;;;;10487275;28;20196;-77
2021/06/19 20:58:25;;;;;;;49.38;33.13;;;;;18.80;100323.00;;;;10534786;28;20283;-76
2021/06/19 21:03:27;;;;;;;52.65;34.08;;;;;18.80;100291.00;;;;10519601;28;20293;-76
2021/06/19 21:08:29;;;;;;;51.60;34.75;;;;;18.70;100255.00;;;;10519214;28;20212;-77
2021/06/19 21:13:31;;;;;;;54.42;34.78;;;;;18.70;100246.00;;;;10490246;28;20243;-76
2021/06/19 21:18:33;;;;;;;56.22;35.95;;;;;18.60;100235.00;;;;10487499;28;20244;-76
2021/06/19 21:23:35;;;;;;;55.30;37.58;;;;;18.60;100227.00;;;;10491532;28;20201;-76
2021/06/19 21:28:37;;;;;;;60.28;39.22;;;;;18.50;100152.00;;;;10488489;28;20556;-76
2021/06/19 21:33:39;;;;;;;64.10;39.10;;;;;18.40;100206.00;;;;10461692;28;20217;-76
2021/06/19 21:38:41;;;;;;;64.97;40.70;;;;;18.40;100239.00;;;;10453284;28;20213;-76
2021/06/19 21:43:43;;;;;;;68.25;42.25;;;;;18.50;100238.00;;;;10504874;28;21069;-76
2021/06/19 21:48:45;;;;;;;70.45;44.25;;;;;18.50;100252.00;;;;10513586;28;20197;-76
2021/06/19 21:53:47;;;;;;;70.95;42.63;;;;;18.60;100221.00;;;;10515723;28;20197;-76
2021/06/19 21:58:51;;;;;;;73.97;44.00;;;;;18.60;100258.00;;;;10468482;28;20595;-76
2021/06/19 22:03:53;;;;;;;73.07;41.85;;;;;18.60;100290.00;;;;10489303;28;20203;-76
2021/06/19 22:08:55;;;;;;;76.40;44.67;;;;;18.60;100301.00;;;;10509489;28;20219;-76
2021/06/19 22:13:57;;;;;;;66.97;40.33;;;;;18.50;100281.00;;;;10539239;28;20193;-76
2021/06/19 22:18:59;;;;;;;66.88;39.28;;;;;18.30;100231.00;;;;10512143;28;20185;-76
2021/06/19 22:24:02;;;;;;;73.55;43.67;;;;;18.20;100242.00;;;;10504496;28;20641;-76
2021/06/19 22:29:05;;;;;;;71.20;43.35;;;;;18.20;100271.00;;;;10480298;28;20217;-76
2021/06/19 22:34:07;;;;;;;72.50;41.42;;;;;18.10;100277.00;;;;10463419;28;20712;-76
2021/06/19 22:39:09;;;;;;;69.90;41.03;;;;;18.00;100250.00;;;;10485744;28;20212;-76
2021/06/19 22:44:11;;;;;;;71.17;41.70;;;;;17.90;100214.00;;;;10492005;28;20666;-76
2021/06/19 22:49:13;;;;;;;65.18;41.42;;;;;17.80;100246.00;;;;10511791;28;20242;-75
2021/06/19 22:54:15;;;;;;;72.85;44.17;;;;;17.70;100263.00;;;;10511082;28;20243;-76
2021/06/19 22:59:17;;;;;;;77.95;45.22;;;;;17.70;100265.00;;;;10490038;28;20243;-76
2021/06/19 23:04:20;;;;;;;84.57;48.85;;;;;17.60;100262.00;;;;10481906;28;20552;-76
2021/06/19 23:09:23;;;;;;;75.35;44.10;;;;;17.60;100264.00;;;;10465490;28;20607;-76
2021/06/19 23:14:24;;;;;;;90.43;52.03;;;;;17.60;100270.00;;;;10482154;28;20651;-76
2021/06/19 23:19:26;;;;;;;70.75;44.10;;;;;17.50;100250.00;;;;10493670;28;20209;-76
2021/06/19 23:24:29;;;;;;;80.15;47.78;;;;;17.50;100245.00;;;;10502943;28;20251;-76
2021/06/19 23:29:32;;;;;;;75.82;47.17;;;;;17.40;100248.00;;;;10481667;28;20208;-76
2021/06/19 23:34:34;;;;;;;65.57;42.70;;;;;17.30;100245.00;;;;10517957;28;20307;-76
2021/06/19 23:39:36;;;;;;;62.25;42.65;;;;;17.30;100242.00;;;;10524747;28;20193;-76
2021/06/19 23:44:38;;;;;;;65.45;40.20;;;;;17.30;100230.00;;;;10525322;28;20189;-76
2021/06/19 23:49:40;;;;;;;61.57;41.40;;;;;17.20;100209.00;;;;10532106;28;20210;-77
2021/06/19 23:54:42;;;;;;;58.90;39.60;;;;;17.20;100224.00;;;;10443477;28;20208;-76
2021/06/19 23:59:44;;;;;;;53.83;36.77;;;;;17.20;100221.00;;;;10507645;28;20216;-76
